LAN022 SCQP-SCEL
Flight info
| Callsign | LAN022 |
|---|---|
| Flight time | 1h 5m |
| Altitude | 36000 |
| Route | KETIR7E KETIR UQ802 EROLO EROLO4B |
| Aircraft | A321/M-SDE3FGHIRWY/LB1 |
Departure
| Time | 2026-05-06 13:53 |
|---|---|
| Airport | La Araucanía International Airport (SCQP) |
Arrival
| Time | 2026-05-06 14:59 |
|---|---|
| Airport | Comodoro Arturo Merino Benítez International Airport (SCEL) |
| Time | Latitude | Longitude | Altitude | Speed | Heading |
|---|---|---|---|---|---|
| 2026-05-06 13:06 | -38.92701 | -72.64775 | 313 ft | 0 kts | 106° |
| 2026-05-06 13:41 | -38.92694 | -72.64801 | 313 ft | 4 kts | 118° |
| 2026-05-06 13:41 | -38.92679 | -72.64830 | 313 ft | 4 kts | 135° |
| 2026-05-06 13:42 | -38.92658 | -72.64851 | 313 ft | 4 kts | 154° |
| 2026-05-06 13:42 | -38.92635 | -72.64860 | 313 ft | 4 kts | 185° |
| 2026-05-06 13:42 | -38.92625 | -72.64858 | 313 ft | 0 kts | 199° |
| 2026-05-06 13:45 | -38.92634 | -72.64862 | 313 ft | 4 kts | 198° |
| 2026-05-06 13:46 | -38.92677 | -72.64880 | 313 ft | 6 kts | 197° |
| 2026-05-06 13:46 | -38.92714 | -72.64895 | 312 ft | 5 kts | 198° |
| 2026-05-06 13:46 | -38.92726 | -72.64900 | 313 ft | 7 kts | 198° |
| 2026-05-06 13:47 | -38.92757 | -72.64913 | 313 ft | 14 kts | 198° |
| 2026-05-06 13:47 | -38.92840 | -72.64949 | 313 ft | 7 kts | 201° |
| 2026-05-06 13:48 | -38.92875 | -72.64982 | 313 ft | 8 kts | 245° |
| 2026-05-06 13:48 | -38.92866 | -72.65075 | 314 ft | 8 kts | 283° |
| 2026-05-06 13:48 | -38.92858 | -72.65121 | 314 ft | 4 kts | 283° |
| 2026-05-06 13:48 | -38.92857 | -72.65123 | 314 ft | 0 kts | 283° |
| 2026-05-06 13:49 | -38.92856 | -72.65128 | 314 ft | 3 kts | 283° |
| 2026-05-06 13:49 | -38.92843 | -72.65206 | 315 ft | 13 kts | 279° |
| 2026-05-06 13:49 | -38.92891 | -72.65277 | 315 ft | 10 kts | 202° |
| 2026-05-06 13:49 | -38.92933 | -72.65288 | 315 ft | 9 kts | 196° |
| 2026-05-06 13:50 | -38.93000 | -72.65319 | 315 ft | 16 kts | 201° |
| 2026-05-06 13:50 | -38.93159 | -72.65388 | 312 ft | 31 kts | 197° |
| 2026-05-06 13:50 | -38.93348 | -72.65461 | 312 ft | 25 kts | 197° |
| 2026-05-06 13:50 | -38.93464 | -72.65505 | 311 ft | 10 kts | 194° |
| 2026-05-06 13:51 | -38.93563 | -72.65527 | 312 ft | 11 kts | 168° |
| 2026-05-06 13:51 | -38.93607 | -72.65519 | 312 ft | 8 kts | 187° |
| 2026-05-06 13:51 | -38.93618 | -72.65552 | 312 ft | 2 kts | 306° |
| 2026-05-06 13:51 | -38.93588 | -72.65554 | 312 ft | 7 kts | 12° |
| 2026-05-06 13:52 | -38.93571 | -72.65548 | 312 ft | 0 kts | 15° |
| 2026-05-06 13:52 | -38.93414 | -72.65487 | 311 ft | 60 kts | 17° |
| 2026-05-06 13:52 | -38.92807 | -72.65249 | 316 ft | 119 kts | 17° |
| 2026-05-06 13:53 | -38.91859 | -72.64876 | 358 ft | 161 kts | 17° |
| 2026-05-06 13:53 | -38.90830 | -72.64466 | 1079 ft | 150 kts | 16° |
| 2026-05-06 13:53 | -38.89831 | -72.64071 | 1631 ft | 156 kts | 17° |
| 2026-05-06 13:53 | -38.88720 | -72.63619 | 1861 ft | 176 kts | 17° |
| 2026-05-06 13:54 | -38.87473 | -72.63111 | 2037 ft | 199 kts | 17° |
| 2026-05-06 13:54 | -38.86089 | -72.62555 | 2229 ft | 219 kts | 17° |
| 2026-05-06 13:54 | -38.84541 | -72.61944 | 2365 ft | 248 kts | 15° |
| 2026-05-06 13:54 | -38.82794 | -72.61412 | 2821 ft | 265 kts | 11° |
| 2026-05-06 13:55 | -38.80980 | -72.60943 | 3645 ft | 268 kts | 10° |
| 2026-05-06 13:55 | -38.79150 | -72.60482 | 4432 ft | 271 kts | 10° |
| 2026-05-06 13:55 | -38.77313 | -72.60011 | 5243 ft | 274 kts | 10° |
| 2026-05-06 13:55 | -38.75443 | -72.59522 | 6063 ft | 275 kts | 9° |
| 2026-05-06 13:56 | -38.73573 | -72.59022 | 6935 ft | 273 kts | 9° |
| 2026-05-06 13:56 | -38.71718 | -72.58521 | 7783 ft | 272 kts | 9° |
| 2026-05-06 13:56 | -38.69865 | -72.58013 | 8588 ft | 274 kts | 9° |
| 2026-05-06 13:56 | -38.67994 | -72.57498 | 9336 ft | 276 kts | 8° |
| 2026-05-06 13:57 | -38.66110 | -72.56981 | 10067 ft | 278 kts | 8° |
| 2026-05-06 13:57 | -38.64170 | -72.56456 | 10405 ft | 296 kts | 8° |
| 2026-05-06 13:57 | -38.62073 | -72.55893 | 10557 ft | 318 kts | 8° |
| 2026-05-06 13:57 | -38.59873 | -72.55299 | 11042 ft | 327 kts | 8° |
| 2026-05-06 13:58 | -38.57637 | -72.54686 | 11718 ft | 330 kts | 8° |
| 2026-05-06 13:58 | -38.55388 | -72.54063 | 12405 ft | 331 kts | 8° |
| 2026-05-06 13:58 | -38.53127 | -72.53437 | 13080 ft | 334 kts | 8° |
| 2026-05-06 13:58 | -38.50878 | -72.52819 | 13714 ft | 336 kts | 8° |
| 2026-05-06 13:59 | -38.48549 | -72.52182 | 14370 ft | 339 kts | 8° |
| 2026-05-06 13:59 | -38.46233 | -72.51547 | 15002 ft | 341 kts | 8° |
| 2026-05-06 13:59 | -38.43931 | -72.50916 | 15589 ft | 344 kts | 8° |
| 2026-05-06 13:59 | -38.41580 | -72.50272 | 16173 ft | 347 kts | 8° |
| 2026-05-06 14:00 | -38.39207 | -72.49624 | 16732 ft | 350 kts | 8° |
| 2026-05-06 14:00 | -38.36816 | -72.48976 | 17277 ft | 353 kts | 7° |
| 2026-05-06 14:00 | -38.34403 | -72.48323 | 17828 ft | 356 kts | 7° |
| 2026-05-06 14:00 | -38.31970 | -72.47664 | 18368 ft | 358 kts | 7° |
| 2026-05-06 14:01 | -38.29526 | -72.47002 | 18885 ft | 361 kts | 7° |
| 2026-05-06 14:01 | -38.27058 | -72.46333 | 19370 ft | 364 kts | 7° |
| 2026-05-06 14:01 | -38.24568 | -72.45657 | 19842 ft | 367 kts | 8° |
| 2026-05-06 14:01 | -38.22062 | -72.44962 | 20315 ft | 370 kts | 8° |
| 2026-05-06 14:02 | -38.19537 | -72.44251 | 20765 ft | 373 kts | 8° |
| 2026-05-06 14:02 | -38.16991 | -72.43528 | 21226 ft | 376 kts | 8° |
| 2026-05-06 14:02 | -38.14425 | -72.42801 | 21660 ft | 379 kts | 8° |
| 2026-05-06 14:02 | -38.11841 | -72.42073 | 22078 ft | 382 kts | 8° |
| 2026-05-06 14:03 | -38.09234 | -72.41344 | 22502 ft | 384 kts | 8° |
| 2026-05-06 14:03 | -38.06611 | -72.40612 | 22887 ft | 387 kts | 8° |
| 2026-05-06 14:03 | -38.03967 | -72.39876 | 23292 ft | 390 kts | 8° |
| 2026-05-06 14:03 | -38.01310 | -72.39135 | 23678 ft | 393 kts | 8° |
| 2026-05-06 14:04 | -37.98628 | -72.38389 | 24042 ft | 396 kts | 8° |
| 2026-05-06 14:04 | -37.95948 | -72.37646 | 24418 ft | 398 kts | 8° |
| 2026-05-06 14:04 | -37.93234 | -72.36894 | 24816 ft | 400 kts | 8° |
| 2026-05-06 14:04 | -37.90516 | -72.36140 | 25204 ft | 401 kts | 8° |
| 2026-05-06 14:05 | -37.87784 | -72.35380 | 25583 ft | 403 kts | 8° |
| 2026-05-06 14:05 | -37.85034 | -72.34613 | 25970 ft | 404 kts | 8° |
| 2026-05-06 14:05 | -37.82282 | -72.33845 | 26340 ft | 406 kts | 8° |
| 2026-05-06 14:05 | -37.79514 | -72.33072 | 26705 ft | 407 kts | 8° |
| 2026-05-06 14:06 | -37.76779 | -72.32315 | 27062 ft | 409 kts | 8° |
| 2026-05-06 14:06 | -37.73957 | -72.31537 | 27408 ft | 410 kts | 8° |
| 2026-05-06 14:06 | -37.71202 | -72.30780 | 27751 ft | 411 kts | 8° |
| 2026-05-06 14:06 | -37.68365 | -72.30002 | 28086 ft | 413 kts | 8° |
| 2026-05-06 14:07 | -37.65553 | -72.29225 | 28418 ft | 414 kts | 8° |
| 2026-05-06 14:07 | -37.62774 | -72.28444 | 28730 ft | 416 kts | 9° |
| 2026-05-06 14:07 | -37.59953 | -72.27604 | 29028 ft | 417 kts | 9° |
| 2026-05-06 14:07 | -37.57189 | -72.26750 | 29315 ft | 418 kts | 10° |
| 2026-05-06 14:08 | -37.54362 | -72.25866 | 29600 ft | 420 kts | 10° |
| 2026-05-06 14:08 | -37.51525 | -72.24977 | 29878 ft | 421 kts | 10° |
| 2026-05-06 14:08 | -37.48679 | -72.24093 | 30172 ft | 422 kts | 10° |
| 2026-05-06 14:08 | -37.45819 | -72.23213 | 30436 ft | 424 kts | 9° |
| 2026-05-06 14:09 | -37.42954 | -72.22339 | 30735 ft | 424 kts | 9° |
| 2026-05-06 14:09 | -37.40087 | -72.21468 | 31098 ft | 423 kts | 9° |
| 2026-05-06 14:09 | -37.37227 | -72.20600 | 31457 ft | 423 kts | 9° |
| 2026-05-06 14:09 | -37.34370 | -72.19732 | 31799 ft | 422 kts | 9° |
| 2026-05-06 14:10 | -37.31533 | -72.18871 | 32129 ft | 422 kts | 9° |
| 2026-05-06 14:10 | -37.28662 | -72.18000 | 32435 ft | 422 kts | 8° |
| 2026-05-06 14:10 | -37.25811 | -72.17134 | 32751 ft | 422 kts | 8° |
| 2026-05-06 14:10 | -37.22958 | -72.16266 | 33062 ft | 422 kts | 8° |
| 2026-05-06 14:11 | -37.20111 | -72.15401 | 33370 ft | 421 kts | 8° |
| 2026-05-06 14:11 | -37.17263 | -72.14540 | 33668 ft | 421 kts | 8° |
| 2026-05-06 14:11 | -37.14417 | -72.13684 | 33972 ft | 421 kts | 8° |
| 2026-05-06 14:11 | -37.11573 | -72.12829 | 34261 ft | 420 kts | 7° |
| 2026-05-06 14:12 | -37.08729 | -72.11972 | 34532 ft | 420 kts | 7° |
| 2026-05-06 14:12 | -37.05887 | -72.11112 | 34763 ft | 421 kts | 7° |
| 2026-05-06 14:12 | -37.03035 | -72.10249 | 35005 ft | 421 kts | 7° |
| 2026-05-06 14:12 | -37.00189 | -72.09393 | 35273 ft | 420 kts | 5° |
| 2026-05-06 14:13 | -36.97350 | -72.08541 | 35577 ft | 419 kts | 5° |
| 2026-05-06 14:13 | -36.94510 | -72.07691 | 35809 ft | 419 kts | 4° |
| 2026-05-06 14:13 | -36.91666 | -72.06840 | 35930 ft | 421 kts | 5° |
| 2026-05-06 14:13 | -36.88830 | -72.05988 | 35953 ft | 420 kts | 4° |
| 2026-05-06 14:14 | -36.83194 | -72.04292 | 35952 ft | 419 kts | 4° |
| 2026-05-06 14:14 | -36.77501 | -72.02591 | 35952 ft | 418 kts | 4° |
| 2026-05-06 14:15 | -36.71891 | -72.00913 | 35954 ft | 417 kts | 3° |
| 2026-05-06 14:15 | -36.66252 | -71.99231 | 35957 ft | 417 kts | 3° |
| 2026-05-06 14:16 | -36.60620 | -71.97552 | 35960 ft | 416 kts | 2° |
| 2026-05-06 14:16 | -36.54993 | -71.95889 | 35956 ft | 416 kts | 2° |
| 2026-05-06 14:17 | -36.49369 | -71.94221 | 35955 ft | 415 kts | 2° |
| 2026-05-06 14:17 | -36.43750 | -71.92554 | 35955 ft | 415 kts | 2° |
| 2026-05-06 14:18 | -36.38136 | -71.90886 | 35961 ft | 415 kts | 2° |
| 2026-05-06 14:18 | -36.32522 | -71.89219 | 35966 ft | 415 kts | 1° |
| 2026-05-06 14:19 | -36.26915 | -71.87566 | 35970 ft | 414 kts | 1° |
| 2026-05-06 14:19 | -36.21311 | -71.85917 | 35970 ft | 414 kts | 1° |
| 2026-05-06 14:20 | -36.15736 | -71.84275 | 35968 ft | 413 kts | 1° |
| 2026-05-06 14:20 | -36.10185 | -71.82637 | 35965 ft | 413 kts | 1° |
| 2026-05-06 14:21 | -36.04599 | -71.81002 | 35963 ft | 412 kts | 1° |
| 2026-05-06 14:21 | -35.99016 | -71.79378 | 35964 ft | 412 kts | 1° |
| 2026-05-06 14:22 | -35.93429 | -71.77747 | 35969 ft | 413 kts | 1° |
| 2026-05-06 14:22 | -35.87839 | -71.76100 | 35974 ft | 413 kts | 1° |
| 2026-05-06 14:23 | -35.82247 | -71.74463 | 35972 ft | 413 kts | 1° |
| 2026-05-06 14:23 | -35.76668 | -71.72834 | 35974 ft | 413 kts | 1° |
| 2026-05-06 14:24 | -35.71071 | -71.71212 | 35978 ft | 413 kts | 1° |
| 2026-05-06 14:24 | -35.65488 | -71.69599 | 35980 ft | 412 kts | 1° |
| 2026-05-06 14:25 | -35.59904 | -71.67974 | 35979 ft | 412 kts | 1° |
| 2026-05-06 14:25 | -35.54309 | -71.66347 | 35985 ft | 414 kts | 1° |
| 2026-05-06 14:26 | -35.48704 | -71.64718 | 35992 ft | 414 kts | 1° |
| 2026-05-06 14:26 | -35.43096 | -71.63100 | 35991 ft | 415 kts | 1° |
| 2026-05-06 14:27 | -35.37482 | -71.61476 | 35992 ft | 413 kts | 0° |
| 2026-05-06 14:27 | -35.31901 | -71.59862 | 35995 ft | 414 kts | 1° |
| 2026-05-06 14:28 | -35.26297 | -71.58240 | 36000 ft | 414 kts | 0° |
| 2026-05-06 14:28 | -35.20691 | -71.56638 | 36009 ft | 414 kts | 0° |
| 2026-05-06 14:29 | -35.15101 | -71.55038 | 36002 ft | 413 kts | 0° |
| 2026-05-06 14:29 | -35.09512 | -71.53428 | 36000 ft | 413 kts | 0° |
| 2026-05-06 14:30 | -35.03914 | -71.51822 | 35994 ft | 413 kts | 360° |
| 2026-05-06 14:30 | -34.98314 | -71.50231 | 35987 ft | 413 kts | 359° |
| 2026-05-06 14:31 | -34.92742 | -71.48649 | 35995 ft | 414 kts | 359° |
| 2026-05-06 14:31 | -34.87134 | -71.47050 | 35890 ft | 414 kts | 359° |
| 2026-05-06 14:32 | -34.84333 | -71.46252 | 35641 ft | 413 kts | 359° |
| 2026-05-06 14:32 | -34.81541 | -71.45450 | 35390 ft | 412 kts | 359° |
| 2026-05-06 14:32 | -34.78759 | -71.44648 | 35142 ft | 410 kts | 359° |
| 2026-05-06 14:32 | -34.75987 | -71.43855 | 34895 ft | 409 kts | 358° |
| 2026-05-06 14:33 | -34.73217 | -71.43071 | 34648 ft | 407 kts | 358° |
| 2026-05-06 14:33 | -34.70467 | -71.42291 | 34394 ft | 405 kts | 358° |
| 2026-05-06 14:33 | -34.67735 | -71.41514 | 34145 ft | 403 kts | 358° |
| 2026-05-06 14:33 | -34.65013 | -71.40664 | 33895 ft | 409 kts | 2° |
| 2026-05-06 14:34 | -34.62313 | -71.39417 | 33647 ft | 418 kts | 6° |
| 2026-05-06 14:34 | -34.59624 | -71.38084 | 33394 ft | 416 kts | 6° |
| 2026-05-06 14:34 | -34.56952 | -71.36757 | 33146 ft | 414 kts | 6° |
| 2026-05-06 14:34 | -34.54288 | -71.35438 | 32896 ft | 412 kts | 6° |
| 2026-05-06 14:35 | -34.51641 | -71.34131 | 32647 ft | 410 kts | 6° |
| 2026-05-06 14:35 | -34.49002 | -71.32832 | 32336 ft | 407 kts | 7° |
| 2026-05-06 14:35 | -34.46388 | -71.31543 | 31795 ft | 404 kts | 7° |
| 2026-05-06 14:35 | -34.43785 | -71.30265 | 31233 ft | 402 kts | 7° |
| 2026-05-06 14:36 | -34.41204 | -71.29003 | 30703 ft | 399 kts | 7° |
| 2026-05-06 14:36 | -34.38685 | -71.27772 | 30175 ft | 396 kts | 8° |
| 2026-05-06 14:36 | -34.36145 | -71.26528 | 29646 ft | 393 kts | 8° |
| 2026-05-06 14:36 | -34.33628 | -71.25295 | 29122 ft | 389 kts | 8° |
| 2026-05-06 14:37 | -34.31128 | -71.24071 | 28610 ft | 385 kts | 8° |
| 2026-05-06 14:37 | -34.28653 | -71.22860 | 28105 ft | 383 kts | 9° |
| 2026-05-06 14:37 | -34.26189 | -71.21661 | 27601 ft | 380 kts | 10° |
| 2026-05-06 14:37 | -34.23752 | -71.20473 | 27102 ft | 376 kts | 9° |
| 2026-05-06 14:38 | -34.21339 | -71.19296 | 26637 ft | 373 kts | 9° |
| 2026-05-06 14:38 | -34.19753 | -71.18520 | 26319 ft | 370 kts | 10° |
| 2026-05-06 14:38 | -34.17374 | -71.17358 | 25871 ft | 366 kts | 11° |
| 2026-05-06 14:38 | -34.14241 | -71.15827 | 25291 ft | 361 kts | 10° |
| 2026-05-06 14:39 | -34.11928 | -71.14698 | 24851 ft | 357 kts | 11° |
| 2026-05-06 14:39 | -34.10412 | -71.13957 | 24570 ft | 354 kts | 11° |
| 2026-05-06 14:39 | -34.08140 | -71.12850 | 24145 ft | 350 kts | 10° |
| 2026-05-06 14:39 | -34.05888 | -71.11757 | 23726 ft | 348 kts | 11° |
| 2026-05-06 14:40 | -34.03642 | -71.10667 | 23292 ft | 346 kts | 11° |
| 2026-05-06 14:40 | -34.00713 | -71.09249 | 22725 ft | 342 kts | 12° |
| 2026-05-06 14:40 | -33.99228 | -71.08530 | 22445 ft | 338 kts | 12° |
| 2026-05-06 14:40 | -33.97051 | -71.07477 | 22025 ft | 336 kts | 11° |
| 2026-05-06 14:41 | -33.94893 | -71.06434 | 21624 ft | 333 kts | 11° |
| 2026-05-06 14:41 | -33.92751 | -71.05396 | 21214 ft | 330 kts | 12° |
| 2026-05-06 14:41 | -33.90662 | -71.04384 | 20805 ft | 328 kts | 12° |
| 2026-05-06 14:41 | -33.88570 | -71.03376 | 20409 ft | 327 kts | 12° |
| 2026-05-06 14:42 | -33.86466 | -71.02362 | 19995 ft | 325 kts | 13° |
| 2026-05-06 14:42 | -33.84380 | -71.01351 | 19601 ft | 322 kts | 13° |
| 2026-05-06 14:42 | -33.82313 | -71.00349 | 19195 ft | 319 kts | 13° |
| 2026-05-06 14:42 | -33.80254 | -70.99351 | 18802 ft | 318 kts | 14° |
| 2026-05-06 14:43 | -33.78200 | -70.98359 | 18398 ft | 318 kts | 14° |
| 2026-05-06 14:43 | -33.76161 | -70.97374 | 18004 ft | 315 kts | 14° |
| 2026-05-06 14:43 | -33.74169 | -70.96409 | 17621 ft | 313 kts | 15° |
| 2026-05-06 14:43 | -33.72152 | -70.95433 | 17239 ft | 311 kts | 15° |
| 2026-05-06 14:44 | -33.70150 | -70.94470 | 16852 ft | 309 kts | 15° |
| 2026-05-06 14:44 | -33.68157 | -70.93515 | 16477 ft | 308 kts | 15° |
| 2026-05-06 14:44 | -33.66176 | -70.92564 | 16107 ft | 306 kts | 15° |
| 2026-05-06 14:45 | -33.62279 | -70.90687 | 15358 ft | 302 kts | 15° |
| 2026-05-06 14:45 | -33.60330 | -70.89747 | 14983 ft | 301 kts | 16° |
| 2026-05-06 14:45 | -33.58395 | -70.88813 | 14601 ft | 299 kts | 16° |
| 2026-05-06 14:45 | -33.56486 | -70.87827 | 14225 ft | 300 kts | 22° |
| 2026-05-06 14:46 | -33.54733 | -70.86566 | 13855 ft | 301 kts | 26° |
| 2026-05-06 14:46 | -33.52958 | -70.85254 | 13478 ft | 300 kts | 26° |
| 2026-05-06 14:46 | -33.51215 | -70.83973 | 13084 ft | 298 kts | 26° |
| 2026-05-06 14:46 | -33.49448 | -70.82674 | 12701 ft | 297 kts | 26° |
| 2026-05-06 14:47 | -33.47690 | -70.81382 | 12313 ft | 296 kts | 26° |
| 2026-05-06 14:47 | -33.45959 | -70.80112 | 11929 ft | 295 kts | 26° |
| 2026-05-06 14:47 | -33.44202 | -70.78825 | 11540 ft | 294 kts | 27° |
| 2026-05-06 14:47 | -33.42483 | -70.77567 | 11158 ft | 292 kts | 27° |
| 2026-05-06 14:48 | -33.40740 | -70.76291 | 10751 ft | 292 kts | 28° |
| 2026-05-06 14:48 | -33.39003 | -70.75020 | 10298 ft | 293 kts | 28° |
| 2026-05-06 14:48 | -33.37285 | -70.73762 | 10187 ft | 288 kts | 29° |
| 2026-05-06 14:48 | -33.35573 | -70.72505 | 10075 ft | 289 kts | 29° |
| 2026-05-06 14:49 | -33.33861 | -70.71250 | 9937 ft | 286 kts | 29° |
| 2026-05-06 14:49 | -33.32193 | -70.70075 | 9723 ft | 272 kts | 22° |
| 2026-05-06 14:49 | -33.30436 | -70.69399 | 9271 ft | 265 kts | 7° |
| 2026-05-06 14:49 | -33.28637 | -70.69329 | 8779 ft | 261 kts | 352° |
| 2026-05-06 14:50 | -33.26834 | -70.69568 | 8421 ft | 261 kts | 353° |
| 2026-05-06 14:50 | -33.25043 | -70.69791 | 8072 ft | 259 kts | 353° |
| 2026-05-06 14:50 | -33.23252 | -70.70008 | 7719 ft | 257 kts | 353° |
| 2026-05-06 14:50 | -33.21481 | -70.70219 | 7430 ft | 254 kts | 353° |
| 2026-05-06 14:51 | -33.19786 | -70.70422 | 7309 ft | 251 kts | 353° |
| 2026-05-06 14:51 | -33.18068 | -70.70628 | 7184 ft | 247 kts | 354° |
| 2026-05-06 14:51 | -33.16346 | -70.70808 | 7057 ft | 248 kts | 354° |
| 2026-05-06 14:51 | -33.14633 | -70.70971 | 6943 ft | 247 kts | 355° |
| 2026-05-06 14:52 | -33.12924 | -70.71120 | 6857 ft | 246 kts | 354° |
| 2026-05-06 14:52 | -33.11340 | -70.71682 | 6694 ft | 239 kts | 326° |
| 2026-05-06 14:52 | -33.10237 | -70.73116 | 6553 ft | 238 kts | 295° |
| 2026-05-06 14:52 | -33.09933 | -70.75039 | 6404 ft | 240 kts | 263° |
| 2026-05-06 14:53 | -33.10527 | -70.76869 | 6278 ft | 237 kts | 233° |
| 2026-05-06 14:53 | -33.11691 | -70.78232 | 6084 ft | 234 kts | 221° |
| 2026-05-06 14:53 | -33.12942 | -70.79463 | 5885 ft | 232 kts | 220° |
| 2026-05-06 14:53 | -33.14199 | -70.80654 | 5636 ft | 231 kts | 215° |
| 2026-05-06 14:54 | -33.15677 | -70.81397 | 5383 ft | 232 kts | 191° |
| 2026-05-06 14:54 | -33.17236 | -70.81445 | 5155 ft | 230 kts | 178° |
| 2026-05-06 14:54 | -33.18865 | -70.81354 | 5012 ft | 225 kts | 178° |
| 2026-05-06 14:54 | -33.20384 | -70.81270 | 4822 ft | 211 kts | 178° |
| 2026-05-06 14:55 | -33.21825 | -70.81194 | 4535 ft | 204 kts | 178° |
| 2026-05-06 14:55 | -33.23204 | -70.81119 | 4298 ft | 200 kts | 178° |
| 2026-05-06 14:55 | -33.24592 | -70.81046 | 4035 ft | 197 kts | 177° |
| 2026-05-06 14:55 | -33.25941 | -70.80972 | 3782 ft | 191 kts | 178° |
| 2026-05-06 14:56 | -33.27240 | -70.80904 | 3515 ft | 183 kts | 178° |
| 2026-05-06 14:56 | -33.28476 | -70.80838 | 3273 ft | 174 kts | 178° |
| 2026-05-06 14:56 | -33.29637 | -70.80776 | 3069 ft | 161 kts | 178° |
| 2026-05-06 14:56 | -33.30735 | -70.80717 | 2844 ft | 156 kts | 178° |
| 2026-05-06 14:57 | -33.31819 | -70.80660 | 2641 ft | 155 kts | 177° |
| 2026-05-06 14:57 | -33.32889 | -70.80603 | 2434 ft | 153 kts | 178° |
| 2026-05-06 14:57 | -33.33950 | -70.80545 | 2247 ft | 152 kts | 177° |
| 2026-05-06 14:57 | -33.34991 | -70.80488 | 2044 ft | 151 kts | 177° |
| 2026-05-06 14:58 | -33.36040 | -70.80431 | 1830 ft | 151 kts | 177° |
| 2026-05-06 14:58 | -33.37082 | -70.80378 | 1630 ft | 149 kts | 178° |
| 2026-05-06 14:58 | -33.38031 | -70.80329 | 1572 ft | 126 kts | 178° |
| 2026-05-06 14:58 | -33.38701 | -70.80297 | 1575 ft | 71 kts | 178° |
| 2026-05-06 14:59 | -33.39049 | -70.80275 | 1574 ft | 40 kts | 177° |
| 2026-05-06 14:59 | -33.39291 | -70.80222 | 1572 ft | 20 kts | 157° |
| 2026-05-06 14:59 | -33.39398 | -70.80148 | 1569 ft | 16 kts | 147° |
| 2026-05-06 14:59 | -33.39467 | -70.80095 | 1567 ft | 8 kts | 147° |
| 2026-05-06 15:00 | -33.39511 | -70.80051 | 1566 ft | 8 kts | 127° |
| 2026-05-06 15:00 | -33.39529 | -70.79988 | 1565 ft | 8 kts | 97° |
| 2026-05-06 15:00 | -33.39530 | -70.79913 | 1565 ft | 12 kts | 89° |
| 2026-05-06 15:00 | -33.39525 | -70.79792 | 1565 ft | 15 kts | 88° |
| 2026-05-06 15:01 | -33.39521 | -70.79671 | 1565 ft | 14 kts | 86° |
| 2026-05-06 15:01 | -33.39515 | -70.79556 | 1564 ft | 13 kts | 88° |
| 2026-05-06 15:01 | -33.39511 | -70.79446 | 1564 ft | 13 kts | 87° |
| 2026-05-06 15:01 | -33.39507 | -70.79345 | 1564 ft | 12 kts | 87° |
| 2026-05-06 15:02 | -33.39503 | -70.79250 | 1564 ft | 11 kts | 87° |
| 2026-05-06 15:02 | -33.39500 | -70.79188 | 1564 ft | 0 kts | 87° |
| 2026-05-06 15:02 | -33.39505 | -70.79164 | 1564 ft | 7 kts | 125° |
| 2026-05-06 15:02 | -33.39538 | -70.79154 | 1564 ft | 2 kts | 180° |
| 2026-05-06 15:03 | -33.39567 | -70.79154 | 1564 ft | 3 kts | 176° |
| 2026-05-06 15:03 | -33.39571 | -70.79154 | 1564 ft | 0 kts | 176° |